createdAt,value
2019-06-26T00:01:03.297Z,83.59
2019-06-26T00:03:33.960Z,83.12
2019-06-26T00:06:04.878Z,82.75
2019-06-26T00:08:35.905Z,83.91
2019-06-26T00:11:06.667Z,84.04
2019-06-26T00:13:37.430Z,83.68
2019-06-26T00:16:08.195Z,85.91
2019-06-26T00:18:38.963Z,85.91
2019-06-26T00:21:09.633Z,86.06
2019-06-26T00:23:40.356Z,85.38
2019-06-26T00:26:11.054Z,84.89
2019-06-26T00:28:41.819Z,85.43
2019-06-26T00:31:12.520Z,84.32
2019-06-26T00:33:43.229Z,83.78
2019-06-26T00:36:13.913Z,83.62
2019-06-26T00:38:44.573Z,84.35
2019-06-26T00:41:15.331Z,84.00
2019-06-26T00:43:46.006Z,84.39
2019-06-26T00:46:16.709Z,85.70
2019-06-26T00:48:47.423Z,85.43
2019-06-26T00:51:18.242Z,85.04
2019-06-26T00:53:49.077Z,86.15
2019-06-26T00:56:19.731Z,86.82
2019-06-26T00:58:50.599Z,86.76
2019-06-26T01:01:21.383Z,86.76
2019-06-26T01:03:53.800Z,86.97
2019-06-26T01:06:41.574Z,86.85
2019-06-26T01:09:13.538Z,86.92
2019-06-26T01:11:47.383Z,87.17
2019-06-26T01:14:18.217Z,87.77
2019-06-26T01:16:48.964Z,87.84
2019-06-26T01:19:19.810Z,87.49
2019-06-26T01:21:50.552Z,88.61
2019-06-26T01:24:21.417Z,88.61
2019-06-26T01:26:52.276Z,88.78
2019-06-26T01:29:23.065Z,88.91
2019-06-26T01:31:53.755Z,90.03
2019-06-26T01:34:24.417Z,89.85
2019-06-26T01:36:55.152Z,90.29
2019-06-26T01:39:25.932Z,89.86
2019-06-26T01:41:56.713Z,90.13
2019-06-26T01:44:27.494Z,90.93
2019-06-26T01:46:58.268Z,90.78
2019-06-26T01:49:28.944Z,92.29
2019-06-26T01:51:59.740Z,92.43
2019-06-26T01:54:30.491Z,92.63
2019-06-26T01:57:01.386Z,92.34
2019-06-26T01:59:32.083Z,92.53
2019-06-26T02:02:03.044Z,93.38
2019-06-26T02:04:33.885Z,93.92
2019-06-26T02:07:04.640Z,94.04
2019-06-26T02:09:35.455Z,93.62
2019-06-26T02:12:06.222Z,93.77
2019-06-26T02:14:37.040Z,94.32
2019-06-26T02:17:07.731Z,94.78
2019-06-26T02:19:38.487Z,94.32
2019-06-26T02:22:09.337Z,94.76
2019-06-26T02:24:40.075Z,95.34
2019-06-26T02:27:10.773Z,95.23
2019-06-26T02:29:41.554Z,95.93
2019-06-26T02:32:12.349Z,96.48
2019-06-26T02:34:43.040Z,95.79
2019-06-26T02:37:13.738Z,95.64
2019-06-26T02:39:44.510Z,96.20
2019-06-26T02:42:15.342Z,96.01
2019-06-26T02:44:52.775Z,95.31
2019-06-26T02:47:20.816Z,94.95
2019-06-26T02:49:51.442Z,95.38
2019-06-26T02:52:22.229Z,94.96
2019-06-26T02:54:52.996Z,95.28
2019-06-26T02:57:23.821Z,95.49
2019-06-26T02:59:54.582Z,96.05
2019-06-26T03:02:25.344Z,96.07
2019-06-26T03:04:56.039Z,96.55
2019-06-26T03:07:26.808Z,96.96
2019-06-26T03:09:57.595Z,97.30
2019-06-26T03:12:28.261Z,97.29
2019-06-26T03:15:08.821Z,97.37
2019-06-26T03:17:31.444Z,97.78
2019-06-26T03:20:02.253Z,97.61
2019-06-26T03:22:33.146Z,97.15
2019-06-26T03:25:05.226Z,97.18
2019-06-26T03:27:35.910Z,96.80
2019-06-26T03:30:07.440Z,96.50
2019-06-26T03:32:38.158Z,95.98
2019-06-26T03:35:09.178Z,95.82
2019-06-26T03:37:40.018Z,95.89
2019-06-26T03:40:10.995Z,95.15
2019-06-26T03:42:41.676Z,94.89
2019-06-26T03:45:25.252Z,94.89
2019-06-26T03:47:44.996Z,94.86
2019-06-26T03:50:16.056Z,95.14
2019-06-26T03:52:46.749Z,95.27
2019-06-26T03:55:17.606Z,95.20
2019-06-26T03:57:48.429Z,95.30
2019-06-26T04:00:37.184Z,95.50
2019-06-26T04:03:08.621Z,95.72
2019-06-26T04:05:39.495Z,95.76
2019-06-26T04:08:10.222Z,96.05
2019-06-26T04:10:43.406Z,95.88
2019-06-26T04:13:13.410Z,95.81
2019-06-26T04:15:44.102Z,95.86
2019-06-26T04:18:14.865Z,95.76
2019-06-26T04:20:45.679Z,95.85
2019-06-26T04:23:16.477Z,95.74
2019-06-26T04:25:47.255Z,95.91
2019-06-26T04:28:17.952Z,95.37
2019-06-26T04:30:48.664Z,94.41
2019-06-26T04:33:19.439Z,93.98
2019-06-26T04:35:50.257Z,93.27
2019-06-26T04:38:24.189Z,93.02
2019-06-26T04:40:58.462Z,93.16
2019-06-26T04:43:32.307Z,92.99
2019-06-26T04:46:07.881Z,92.80
2019-06-26T04:48:38.596Z,92.15
2019-06-26T04:51:10.866Z,91.90
2019-06-26T04:53:41.555Z,91.07
2019-06-26T04:56:17.701Z,90.71
2019-06-26T04:58:48.497Z,90.13
2019-06-26T05:01:19.301Z,90.13
2019-06-26T05:03:50.411Z,89.88
2019-06-26T05:06:21.195Z,88.93
2019-06-26T05:08:54.759Z,88.19
2019-06-26T05:11:25.478Z,88.19
2019-06-26T05:13:56.263Z,88.89
2019-06-26T05:16:28.638Z,88.06
2019-06-26T05:18:59.406Z,87.80
2019-06-26T05:21:30.194Z,87.40
2019-06-26T05:24:00.989Z,85.79
2019-06-26T05:26:31.688Z,84.58
2019-06-26T05:29:02.409Z,84.13
2019-06-26T05:31:33.185Z,83.18
2019-06-26T05:34:03.958Z,82.58
2019-06-26T05:36:34.799Z,82.39
2019-06-26T05:39:07.031Z,81.42
2019-06-26T05:41:38.025Z,80.52
2019-06-26T05:44:08.873Z,80.16
2019-06-26T05:46:39.813Z,79.21
2019-06-26T05:49:10.526Z,78.56
2019-06-26T05:51:41.237Z,77.99
2019-06-26T05:54:12.021Z,77.81
2019-06-26T05:56:45.283Z,77.41
2019-06-26T05:59:15.387Z,76.57
2019-06-26T06:01:46.415Z,76.37
2019-06-26T06:04:17.122Z,75.25
2019-06-26T06:06:47.829Z,74.46
2019-06-26T06:09:18.566Z,72.94
2019-06-26T06:11:49.375Z,70.83
2019-06-26T06:14:20.488Z,68.57
2019-06-26T06:16:51.173Z,67.73
2019-06-26T06:19:21.862Z,65.34
2019-06-26T06:21:52.614Z,62.56
2019-06-26T06:24:23.315Z,60.23
2019-06-26T06:26:54.139Z,57.18
2019-06-26T06:29:24.808Z,54.14
2019-06-26T06:31:55.542Z,52.36
2019-06-26T06:34:26.338Z,49.77
2019-06-26T06:36:57.205Z,46.91
2019-06-26T06:39:28.095Z,44.50
2019-06-26T06:42:00.036Z,44.33
2019-06-26T06:44:30.910Z,44.15
2019-06-26T06:47:04.422Z,42.00
2019-06-26T06:49:34.314Z,41.25
2019-06-26T06:52:05.498Z,41.25
2019-06-26T06:54:36.288Z,39.10
2019-06-26T06:57:09.962Z,38.41
2019-06-26T06:59:40.742Z,38.01
2019-06-26T07:02:11.669Z,38.68
2019-06-26T07:04:42.622Z,36.95
2019-06-26T07:07:13.533Z,36.38
2019-06-26T07:09:44.400Z,35.81
2019-06-26T07:12:15.228Z,35.36
2019-06-26T07:14:46.094Z,35.61
2019-06-26T07:17:21.006Z,36.38
2019-06-26T07:19:49.572Z,36.00
2019-06-26T07:22:20.499Z,35.37
2019-06-26T07:24:51.360Z,35.37
2019-06-26T07:27:22.226Z,35.95
2019-06-26T07:29:53.165Z,36.81
2019-06-26T07:32:23.892Z,38.89
2019-06-26T07:34:54.671Z,38.90
2019-06-26T07:37:25.433Z,41.20
2019-06-26T07:40:01.329Z,42.24
2019-06-26T07:42:28.874Z,43.25
2019-06-26T07:44:59.788Z,44.38
2019-06-26T07:47:42.369Z,44.10
2019-06-26T07:50:03.473Z,44.97
2019-06-26T07:52:34.585Z,45.88
2019-06-26T07:55:11.891Z,45.92
2019-06-26T07:57:41.171Z,46.12
2019-06-26T08:00:12.364Z,45.29
2019-06-26T08:02:46.156Z,44.76
2019-06-26T08:05:17.174Z,44.72
2019-06-26T08:07:48.816Z,45.33
2019-06-26T08:10:20.046Z,46.48
2019-06-26T08:12:51.093Z,47.13
2019-06-26T08:15:22.493Z,46.90
2019-06-26T08:18:00.741Z,46.04
2019-06-26T08:20:25.822Z,46.14
2019-06-26T08:22:56.796Z,45.88
2019-06-26T08:25:27.651Z,45.96
2019-06-26T08:27:58.472Z,45.62
2019-06-26T08:30:29.390Z,45.44
2019-06-26T08:33:00.271Z,45.01
2019-06-26T08:35:31.180Z,45.56
2019-06-26T08:38:10.178Z,46.75
2019-06-26T08:40:34.559Z,46.74
2019-06-26T08:43:05.403Z,46.12
2019-06-26T08:45:36.277Z,45.09
2019-06-26T08:48:18.986Z,43.50
2019-06-26T08:50:39.565Z,41.33
2019-06-26T08:53:10.523Z,40.75
2019-06-26T08:55:41.268Z,40.08
2019-06-26T08:58:12.130Z,39.68
2019-06-26T09:00:43.068Z,40.50
2019-06-26T09:03:13.886Z,40.30
2019-06-26T09:05:53.452Z,40.70
2019-06-26T09:08:28.511Z,39.37
2019-06-26T09:10:59.559Z,38.92
2019-06-26T09:13:30.927Z,39.11
2019-06-26T09:16:01.815Z,39.11
2019-06-26T09:18:35.780Z,38.12
2019-06-26T09:21:05.102Z,34.45
2019-06-26T09:23:35.923Z,35.38
2019-06-26T09:26:06.759Z,36.37
2019-06-26T09:28:37.666Z,36.23
2019-06-26T09:31:08.491Z,36.37
2019-06-26T09:33:39.319Z,36.46
2019-06-26T09:36:10.171Z,34.89
2019-06-26T09:38:41.023Z,33.71
2019-06-26T09:41:15.048Z,33.91
2019-06-26T09:43:47.310Z,34.93
2019-06-26T09:46:19.725Z,33.95
2019-06-26T09:48:53.692Z,34.51
2019-06-26T09:51:37.167Z,34.26
2019-06-26T09:54:08.206Z,34.66
2019-06-26T09:56:39.222Z,34.02
2019-06-26T09:59:10.858Z,32.75
2019-06-26T10:01:43.137Z,32.70
2019-06-26T10:04:14.084Z,32.25
2019-06-26T10:06:45.149Z,33.27
2019-06-26T10:09:16.082Z,33.18
2019-06-26T10:11:46.848Z,32.58
2019-06-26T10:14:17.757Z,31.80
2019-06-26T10:16:48.590Z,31.85
2019-06-26T10:19:19.372Z,31.41
2019-06-26T10:21:52.971Z,31.11
2019-06-26T10:24:32.783Z,32.13
2019-06-26T10:27:20.811Z,32.01
2019-06-26T10:29:56.264Z,30.53
2019-06-26T10:32:33.069Z,29.73
2019-06-26T10:35:05.303Z,31.49
2019-06-26T10:37:36.291Z,31.91
2019-06-26T10:40:07.786Z,30.64
2019-06-26T10:42:38.740Z,30.54
2019-06-26T10:45:10.071Z,30.58
2019-06-26T10:47:40.957Z,30.63
2019-06-26T10:50:12.292Z,30.14
2019-06-26T10:52:43.127Z,28.18
2019-06-26T10:55:14.151Z,27.34
2019-06-26T10:57:45.003Z,26.65
2019-06-26T11:00:16.508Z,26.32
2019-06-26T11:02:47.400Z,27.37
2019-06-26T11:05:18.415Z,26.83
2019-06-26T11:07:50.726Z,26.97
2019-06-26T11:10:21.783Z,27.29
2019-06-26T11:12:52.643Z,26.84
2019-06-26T11:15:24.015Z,28.07
2019-06-26T11:18:00.602Z,28.01
2019-06-26T11:20:31.586Z,26.39
2019-06-26T11:23:02.461Z,26.83
2019-06-26T11:25:34.851Z,27.47
2019-06-26T11:28:05.805Z,28.05
2019-06-26T11:30:36.728Z,27.98
2019-06-26T11:33:07.567Z,27.59
2019-06-26T11:35:38.450Z,26.95
2019-06-26T11:38:09.389Z,27.38
2019-06-26T11:40:46.273Z,27.38
2019-06-26T11:43:17.209Z,26.85
2019-06-26T11:45:48.027Z,27.05
2019-06-26T11:48:18.907Z,27.79
2019-06-26T11:50:49.736Z,27.53
2019-06-26T11:53:21.038Z,27.21
2019-06-26T11:55:52.111Z,26.41
2019-06-26T11:58:23.053Z,26.40
2019-06-26T12:00:54.253Z,27.01
2019-06-26T12:03:25.045Z,27.06
2019-06-26T12:06:15.318Z,27.20
2019-06-26T12:08:32.829Z,26.34
2019-06-26T12:11:03.711Z,25.70
2019-06-26T12:13:40.037Z,26.01
2019-06-26T12:16:13.490Z,26.38
2019-06-26T12:18:47.509Z,27.21
2019-06-26T12:21:18.514Z,27.49
2019-06-26T12:23:49.245Z,26.42
2019-06-26T12:26:20.111Z,25.68
2019-06-26T12:28:50.879Z,25.14
2019-06-26T12:31:21.668Z,26.35
2019-06-26T12:33:52.544Z,26.89
2019-06-26T12:36:23.679Z,26.53
2019-06-26T12:38:54.568Z,26.02
2019-06-26T12:41:25.472Z,25.17
2019-06-26T12:43:56.402Z,25.06
2019-06-26T12:46:27.191Z,25.22
2019-06-26T12:48:58.047Z,24.88
2019-06-26T12:51:28.814Z,26.11
2019-06-26T12:53:59.593Z,26.60
2019-06-26T12:56:30.656Z,26.90
2019-06-26T12:59:01.620Z,27.44
2019-06-26T13:01:32.499Z,28.06
2019-06-26T13:04:03.349Z,27.42
2019-06-26T13:06:34.180Z,27.69
2019-06-26T13:09:07.512Z,26.64
2019-06-26T13:11:38.318Z,26.80
2019-06-26T13:14:09.246Z,25.74
2019-06-26T13:16:41.575Z,25.83
2019-06-26T13:19:12.696Z,24.62
2019-06-26T13:21:43.565Z,24.59
2019-06-26T13:24:14.340Z,23.91
2019-06-26T13:26:45.276Z,23.76
2019-06-26T13:29:16.208Z,23.61
2019-06-26T13:31:47.198Z,22.11
2019-06-26T13:34:17.993Z,21.42
2019-06-26T13:36:48.998Z,21.74
2019-06-26T13:39:19.770Z,22.42
2019-06-26T13:41:50.657Z,21.55
2019-06-26T13:44:21.564Z,21.84
2019-06-26T13:46:52.324Z,21.56
2019-06-26T13:49:23.180Z,21.49
2019-06-26T13:51:55.651Z,22.96
2019-06-26T13:54:26.594Z,23.70
2019-06-26T13:56:57.498Z,23.75
2019-06-26T13:59:28.329Z,23.80
2019-06-26T14:01:59.217Z,23.59
2019-06-26T14:04:29.974Z,23.49
2019-06-26T14:07:00.863Z,22.52
2019-06-26T14:09:31.699Z,24.07
2019-06-26T14:12:02.549Z,23.29
2019-06-26T14:14:52.512Z,22.66
2019-06-26T14:17:06.121Z,22.29
2019-06-26T14:19:37.048Z,22.62
2019-06-26T14:22:07.986Z,22.25
2019-06-26T14:24:39.001Z,22.60
2019-06-26T14:27:10.045Z,22.15
2019-06-26T14:29:40.895Z,22.82
2019-06-26T14:32:11.833Z,23.29
2019-06-26T14:34:42.645Z,25.05
2019-06-26T14:37:13.497Z,26.35
2019-06-26T14:39:44.381Z,25.83
2019-06-26T14:42:15.238Z,26.34
2019-06-26T14:44:46.164Z,25.13
2019-06-26T14:47:16.993Z,24.06
2019-06-26T14:49:48.150Z,23.70
2019-06-26T14:52:19.021Z,24.51
2019-06-26T14:54:49.951Z,25.11
2019-06-26T14:57:20.875Z,25.33
2019-06-26T14:59:51.732Z,25.34
2019-06-26T15:02:22.666Z,26.42
2019-06-26T15:04:53.530Z,26.80
2019-06-26T15:07:24.416Z,27.36
2019-06-26T15:09:55.297Z,26.83
2019-06-26T15:12:26.048Z,26.03
2019-06-26T15:14:56.876Z,26.49
2019-06-26T15:17:27.743Z,26.41
2019-06-26T15:19:58.593Z,25.60
2019-06-26T15:22:29.394Z,25.55
2019-06-26T15:25:00.305Z,25.62
2019-06-26T15:27:31.158Z,25.60
2019-06-26T15:30:02.167Z,25.04
2019-06-26T15:32:33.509Z,23.99
2019-06-26T15:35:08.848Z,24.54
2019-06-26T15:37:39.808Z,25.57
2019-06-26T15:40:13.825Z,25.65
2019-06-26T15:42:48.745Z,26.15
2019-06-26T15:45:20.659Z,26.14
2019-06-26T15:47:50.287Z,26.14
2019-06-26T15:50:21.624Z,25.54
2019-06-26T15:52:52.491Z,25.32
2019-06-26T15:55:23.291Z,25.49
2019-06-26T15:57:54.045Z,26.61
2019-06-26T16:00:24.895Z,26.92
2019-06-26T16:02:55.765Z,26.90
2019-06-26T16:05:26.583Z,25.69
2019-06-26T16:07:57.387Z,25.32
2019-06-26T16:10:28.286Z,25.34
2019-06-26T16:12:59.099Z,24.67
2019-06-26T16:15:29.966Z,24.52
2019-06-26T16:18:02.613Z,25.34
2019-06-26T16:20:33.522Z,26.66
2019-06-26T16:23:04.446Z,26.31
2019-06-26T16:25:35.323Z,26.67
2019-06-26T16:28:06.392Z,26.49
2019-06-26T16:30:37.819Z,26.18
2019-06-26T16:33:08.628Z,26.60
2019-06-26T16:35:39.938Z,26.62
2019-06-26T16:38:10.859Z,27.41
2019-06-26T16:40:41.743Z,27.73
2019-06-26T16:43:12.569Z,28.95
2019-06-26T16:45:43.345Z,29.58
2019-06-26T16:48:14.352Z,30.08
2019-06-26T16:50:45.287Z,29.66
2019-06-26T16:53:16.131Z,29.29
2019-06-26T16:55:47.002Z,28.86
2019-06-26T16:58:17.933Z,29.27
2019-06-26T17:00:48.897Z,29.59
2019-06-26T17:03:19.811Z,29.14
2019-06-26T17:05:50.752Z,28.65
2019-06-26T17:08:21.608Z,28.38
2019-06-26T17:10:52.481Z,28.16
2019-06-26T17:13:23.326Z,28.09
2019-06-26T17:15:54.171Z,28.88
2019-06-26T17:18:25.109Z,29.31
2019-06-26T17:20:56.067Z,28.96
2019-06-26T17:23:27.016Z,28.76
2019-06-26T17:25:57.942Z,29.03
2019-06-26T17:28:28.886Z,29.18
2019-06-26T17:30:59.727Z,29.74
2019-06-26T17:33:30.580Z,30.54
2019-06-26T17:36:01.368Z,30.67
2019-06-26T17:38:32.342Z,30.50
2019-06-26T17:41:04.082Z,31.29
2019-06-26T17:43:34.876Z,31.67
2019-06-26T17:46:09.183Z,31.46
2019-06-26T17:48:41.749Z,31.00
2019-06-26T17:51:15.310Z,31.49
2019-06-26T17:53:46.358Z,31.67
2019-06-26T17:56:20.257Z,32.21
2019-06-26T17:58:51.115Z,32.39
2019-06-26T18:01:22.068Z,32.85
2019-06-26T18:03:52.972Z,33.40
2019-06-26T18:06:23.724Z,34.09
2019-06-26T18:08:55.020Z,34.43
2019-06-26T18:11:32.303Z,34.78
2019-06-26T18:14:05.389Z,35.11
2019-06-26T18:16:36.291Z,35.76
2019-06-26T18:19:10.302Z,35.69
2019-06-26T18:21:41.202Z,36.30
2019-06-26T18:24:12.073Z,36.83
2019-06-26T18:26:42.890Z,37.40
2019-06-26T18:29:13.819Z,37.87
2019-06-26T18:31:44.743Z,37.70
2019-06-26T18:34:15.795Z,38.13
2019-06-26T18:36:46.845Z,38.08
2019-06-26T18:39:17.853Z,38.29
2019-06-26T18:41:48.745Z,38.23
2019-06-26T18:44:19.631Z,38.73
2019-06-26T18:46:50.585Z,39.18
2019-06-26T18:49:21.866Z,39.17
2019-06-26T18:51:55.557Z,39.32
2019-06-26T18:54:26.362Z,39.51
2019-06-26T18:56:57.404Z,39.87
2019-06-26T18:59:28.253Z,40.17
2019-06-26T19:01:59.374Z,40.18
2019-06-26T19:04:32.911Z,40.62
2019-06-26T19:07:03.778Z,40.72
2019-06-26T19:09:34.930Z,41.30
2019-06-26T19:12:05.926Z,41.62
2019-06-26T19:14:36.781Z,41.77
2019-06-26T19:17:07.679Z,42.21
2019-06-26T19:19:38.539Z,42.59
2019-06-26T19:22:09.397Z,43.07
2019-06-26T19:24:40.312Z,43.52
2019-06-26T19:27:11.205Z,43.75
2019-06-26T19:29:41.975Z,43.83
2019-06-26T19:32:12.858Z,44.34
2019-06-26T19:34:43.776Z,44.96
2019-06-26T19:37:14.784Z,45.21
2019-06-26T19:39:45.666Z,45.48
2019-06-26T19:42:16.505Z,45.63
2019-06-26T19:44:47.381Z,46.39
2019-06-26T19:47:18.315Z,46.49
2019-06-26T19:49:49.089Z,46.61
2019-06-26T19:52:20.199Z,46.98
2019-06-26T19:54:51.279Z,47.16
2019-06-26T19:57:22.316Z,47.58
2019-06-26T19:59:53.240Z,48.21
2019-06-26T20:02:24.195Z,48.49
2019-06-26T20:04:55.178Z,49.18
2019-06-26T20:07:26.112Z,50.15
2019-06-26T20:09:57.085Z,51.04
2019-06-26T20:12:28.079Z,50.51
2019-06-26T20:14:58.895Z,50.74
2019-06-26T20:17:29.789Z,51.55
2019-06-26T20:20:00.666Z,52.02
2019-06-26T20:22:34.429Z,52.76
2019-06-26T20:25:07.994Z,52.94
2019-06-26T20:27:38.914Z,53.70
2019-06-26T20:30:10.614Z,53.38
2019-06-26T20:32:41.469Z,53.79
2019-06-26T20:35:12.408Z,54.22
2019-06-26T20:37:43.827Z,55.95
2019-06-26T20:40:14.963Z,55.90
2019-06-26T20:42:45.974Z,55.62
2019-06-26T20:45:17.249Z,56.72
2019-06-26T20:47:48.156Z,57.07
2019-06-26T20:50:19.059Z,56.96
2019-06-26T20:52:49.840Z,58.16
2019-06-26T20:55:20.847Z,59.00
2019-06-26T20:57:51.688Z,58.81
2019-06-26T21:00:22.828Z,59.69
2019-06-26T21:02:57.244Z,59.33
2019-06-26T21:05:29.093Z,60.44
2019-06-26T21:08:00.001Z,60.85
2019-06-26T21:10:30.886Z,61.04
2019-06-26T21:13:07.668Z,61.90
2019-06-26T21:15:38.513Z,62.71
2019-06-26T21:18:09.741Z,62.71
2019-06-26T21:20:43.260Z,62.91
2019-06-26T21:23:19.049Z,62.66
2019-06-26T21:25:46.617Z,62.66
2019-06-26T21:28:17.482Z,63.91
2019-06-26T21:30:48.359Z,65.49
2019-06-26T21:33:19.282Z,66.55
2019-06-26T21:35:50.227Z,65.90
2019-06-26T21:38:21.112Z,65.90
2019-06-26T21:40:51.856Z,67.08
2019-06-26T21:43:22.742Z,67.37
2019-06-26T21:45:53.542Z,67.56
2019-06-26T21:48:24.261Z,67.61
2019-06-26T21:50:55.180Z,68.01
2019-06-26T21:53:25.872Z,69.27
2019-06-26T21:55:56.607Z,69.35
2019-06-26T21:58:27.319Z,69.80
2019-06-26T22:00:58.190Z,69.93
2019-06-26T22:03:29.959Z,70.13
2019-06-26T22:06:00.960Z,70.23
2019-06-26T22:08:31.688Z,70.39
2019-06-26T22:11:02.555Z,70.67
2019-06-26T22:13:33.336Z,70.47
2019-06-26T22:16:04.083Z,70.74
2019-06-26T22:18:34.927Z,71.37
2019-06-26T22:21:05.822Z,71.74
2019-06-26T22:23:36.625Z,72.28
2019-06-26T22:26:07.474Z,72.51
2019-06-26T22:28:38.306Z,72.34
2019-06-26T22:31:09.147Z,72.60
2019-06-26T22:33:39.864Z,73.85
2019-06-26T22:36:10.766Z,74.26
2019-06-26T22:38:41.719Z,73.76
2019-06-26T22:41:12.470Z,74.63
2019-06-26T22:43:43.191Z,74.99
2019-06-26T22:46:14.033Z,74.78
2019-06-26T22:48:44.818Z,74.63
2019-06-26T22:51:15.544Z,75.28
2019-06-26T22:53:46.803Z,76.45
2019-06-26T22:56:17.616Z,76.58
2019-06-26T22:58:48.467Z,76.57
2019-06-26T23:01:19.173Z,76.89
2019-06-26T23:03:49.984Z,77.40
2019-06-26T23:06:20.783Z,77.13
2019-06-26T23:08:51.594Z,77.83
2019-06-26T23:11:22.461Z,77.79
2019-06-26T23:13:53.226Z,78.08
2019-06-26T23:16:24.061Z,79.01
2019-06-26T23:18:54.936Z,80.22
2019-06-26T23:21:25.694Z,79.26
2019-06-26T23:23:56.549Z,79.42
2019-06-26T23:26:27.337Z,79.62
2019-06-26T23:28:58.101Z,80.24
2019-06-26T23:31:28.949Z,80.20
2019-06-26T23:33:59.719Z,81.26
2019-06-26T23:36:30.424Z,81.30
2019-06-26T23:39:01.152Z,81.40
2019-06-26T23:41:31.848Z,81.28
2019-06-26T23:44:02.657Z,81.44
2019-06-26T23:46:33.435Z,82.67
2019-06-26T23:49:04.419Z,82.40
2019-06-26T23:51:35.257Z,82.55
2019-06-26T23:54:05.948Z,84.08
2019-06-26T23:56:40.677Z,84.02
2019-06-26T23:59:09.157Z,84.86
